sensor_id;sensor_type;location;lat;lon;timestamp;P1;durP1;ratioP1;P2;durP2;ratioP2
8219;SDS011;4151;51.110;7.020;2024-01-06T00:00:53;17.40;;;7.30;;
8219;SDS011;4151;51.110;7.020;2024-01-06T00:03:19;12.27;;;6.90;;
8219;SDS011;4151;51.110;7.020;2024-01-06T00:05:44;15.33;;;8.30;;
8219;SDS011;4151;51.110;7.020;2024-01-06T00:08:10;15.77;;;7.53;;
8219;SDS011;4151;51.110;7.020;2024-01-06T00:10:36;16.40;;;8.70;;
8219;SDS011;4151;51.110;7.020;2024-01-06T00:13:01;15.60;;;7.90;;
8219;SDS011;4151;51.110;7.020;2024-01-06T00:15:27;14.03;;;8.27;;
8219;SDS011;4151;51.110;7.020;2024-01-06T00:17:52;15.70;;;8.60;;
8219;SDS011;4151;51.110;7.020;2024-01-06T00:20:18;14.57;;;7.77;;
8219;SDS011;4151;51.110;7.020;2024-01-06T00:22:43;17.60;;;9.63;;
8219;SDS011;4151;51.110;7.020;2024-01-06T00:25:09;16.30;;;7.90;;
8219;SDS011;4151;51.110;7.020;2024-01-06T00:27:35;14.90;;;9.20;;
8219;SDS011;4151;51.110;7.020;2024-01-06T00:30:00;24.30;;;9.53;;
8219;SDS011;4151;51.110;7.020;2024-01-06T00:32:26;14.83;;;8.40;;
8219;SDS011;4151;51.110;7.020;2024-01-06T00:34:51;20.33;;;8.93;;
8219;SDS011;4151;51.110;7.020;2024-01-06T00:37:17;15.10;;;8.43;;
8219;SDS011;4151;51.110;7.020;2024-01-06T00:39:42;24.10;;;9.17;;
8219;SDS011;4151;51.110;7.020;2024-01-06T00:42:08;19.23;;;9.53;;
8219;SDS011;4151;51.110;7.020;2024-01-06T00:44:35;16.43;;;9.10;;
8219;SDS011;4151;51.110;7.020;2024-01-06T00:47:01;17.93;;;9.80;;
8219;SDS011;4151;51.110;7.020;2024-01-06T00:49:26;19.47;;;10.23;;
8219;SDS011;4151;51.110;7.020;2024-01-06T00:51:52;21.43;;;11.37;;
8219;SDS011;4151;51.110;7.020;2024-01-06T00:54:18;19.80;;;9.90;;
8219;SDS011;4151;51.110;7.020;2024-01-06T00:56:43;25.53;;;11.10;;
8219;SDS011;4151;51.110;7.020;2024-01-06T00:59:09;20.47;;;10.70;;
8219;SDS011;4151;51.110;7.020;2024-01-06T01:01:34;23.23;;;10.67;;
8219;SDS011;4151;51.110;7.020;2024-01-06T01:04:00;21.50;;;10.43;;
8219;SDS011;4151;51.110;7.020;2024-01-06T01:06:26;20.87;;;10.77;;
8219;SDS011;4151;51.110;7.020;2024-01-06T01:08:52;21.80;;;10.43;;
8219;SDS011;4151;51.110;7.020;2024-01-06T01:11:18;21.73;;;10.07;;
8219;SDS011;4151;51.110;7.020;2024-01-06T01:13:44;21.33;;;11.40;;
8219;SDS011;4151;51.110;7.020;2024-01-06T01:16:10;24.43;;;11.97;;
8219;SDS011;4151;51.110;7.020;2024-01-06T01:18:35;38.93;;;13.27;;
8219;SDS011;4151;51.110;7.020;2024-01-06T01:21:01;21.17;;;10.83;;
8219;SDS011;4151;51.110;7.020;2024-01-06T01:23:26;29.00;;;12.87;;
8219;SDS011;4151;51.110;7.020;2024-01-06T01:25:52;22.00;;;11.50;;
8219;SDS011;4151;51.110;7.020;2024-01-06T01:28:19;27.50;;;12.13;;
8219;SDS011;4151;51.110;7.020;2024-01-06T01:30:44;28.13;;;12.30;;
8219;SDS011;4151;51.110;7.020;2024-01-06T01:33:10;26.83;;;12.77;;
8219;SDS011;4151;51.110;7.020;2024-01-06T01:35:35;26.80;;;12.40;;
8219;SDS011;4151;51.110;7.020;2024-01-06T01:38:01;25.40;;;12.53;;
8219;SDS011;4151;51.110;7.020;2024-01-06T01:40:26;26.30;;;12.27;;
8219;SDS011;4151;51.110;7.020;2024-01-06T01:42:52;27.83;;;14.70;;
8219;SDS011;4151;51.110;7.020;2024-01-06T01:45:17;24.50;;;12.80;;
8219;SDS011;4151;51.110;7.020;2024-01-06T01:47:43;22.07;;;11.10;;
8219;SDS011;4151;51.110;7.020;2024-01-06T01:50:10;25.17;;;12.90;;
8219;SDS011;4151;51.110;7.020;2024-01-06T01:52:37;28.57;;;13.07;;
8219;SDS011;4151;51.110;7.020;2024-01-06T01:55:04;30.93;;;12.23;;
8219;SDS011;4151;51.110;7.020;2024-01-06T01:57:30;30.00;;;12.03;;
8219;SDS011;4151;51.110;7.020;2024-01-06T01:59:56;31.57;;;13.47;;
8219;SDS011;4151;51.110;7.020;2024-01-06T02:02:22;28.93;;;13.03;;
8219;SDS011;4151;51.110;7.020;2024-01-06T02:04:48;29.40;;;14.03;;
8219;SDS011;4151;51.110;7.020;2024-01-06T02:07:14;33.20;;;13.23;;
8219;SDS011;4151;51.110;7.020;2024-01-06T02:09:39;26.40;;;12.60;;
8219;SDS011;4151;51.110;7.020;2024-01-06T02:12:05;29.93;;;15.30;;
8219;SDS011;4151;51.110;7.020;2024-01-06T02:14:31;29.53;;;13.07;;
8219;SDS011;4151;51.110;7.020;2024-01-06T02:16:57;35.07;;;12.67;;
8219;SDS011;4151;51.110;7.020;2024-01-06T02:19:23;32.10;;;14.00;;
8219;SDS011;4151;51.110;7.020;2024-01-06T02:21:51;27.83;;;13.50;;
8219;SDS011;4151;51.110;7.020;2024-01-06T02:24:18;27.30;;;12.50;;
8219;SDS011;4151;51.110;7.020;2024-01-06T02:26:43;31.33;;;11.90;;
8219;SDS011;4151;51.110;7.020;2024-01-06T02:29:09;30.47;;;13.00;;
8219;SDS011;4151;51.110;7.020;2024-01-06T02:31:34;37.57;;;15.10;;
8219;SDS011;4151;51.110;7.020;2024-01-06T02:34:00;29.53;;;13.63;;
8219;SDS011;4151;51.110;7.020;2024-01-06T02:36:25;31.93;;;14.27;;
8219;SDS011;4151;51.110;7.020;2024-01-06T02:38:51;28.00;;;13.50;;
8219;SDS011;4151;51.110;7.020;2024-01-06T02:41:16;33.47;;;13.07;;
8219;SDS011;4151;51.110;7.020;2024-01-06T02:43:42;38.33;;;14.47;;
8219;SDS011;4151;51.110;7.020;2024-01-06T02:46:07;35.07;;;14.57;;
8219;SDS011;4151;51.110;7.020;2024-01-06T02:48:33;34.17;;;14.30;;
8219;SDS011;4151;51.110;7.020;2024-01-06T02:50:58;36.43;;;14.33;;
8219;SDS011;4151;51.110;7.020;2024-01-06T02:53:24;31.27;;;14.97;;
8219;SDS011;4151;51.110;7.020;2024-01-06T02:55:49;38.93;;;15.10;;
8219;SDS011;4151;51.110;7.020;2024-01-06T02:58:15;41.37;;;16.83;;
8219;SDS011;4151;51.110;7.020;2024-01-06T03:00:40;41.53;;;16.17;;
8219;SDS011;4151;51.110;7.020;2024-01-06T03:03:06;41.30;;;14.87;;
8219;SDS011;4151;51.110;7.020;2024-01-06T03:05:31;44.93;;;16.80;;
8219;SDS011;4151;51.110;7.020;2024-01-06T03:07:57;32.80;;;15.80;;
8219;SDS011;4151;51.110;7.020;2024-01-06T03:10:23;42.20;;;17.10;;
8219;SDS011;4151;51.110;7.020;2024-01-06T03:12:48;42.53;;;16.20;;
8219;SDS011;4151;51.110;7.020;2024-01-06T03:15:14;40.03;;;16.07;;
8219;SDS011;4151;51.110;7.020;2024-01-06T03:17:39;36.53;;;15.70;;
8219;SDS011;4151;51.110;7.020;2024-01-06T03:20:05;47.87;;;17.00;;
8219;SDS011;4151;51.110;7.020;2024-01-06T03:22:32;50.17;;;18.03;;
8219;SDS011;4151;51.110;7.020;2024-01-06T03:24:57;39.60;;;16.87;;
8219;SDS011;4151;51.110;7.020;2024-01-06T03:27:23;39.97;;;16.27;;
8219;SDS011;4151;51.110;7.020;2024-01-06T03:29:49;46.20;;;16.57;;
8219;SDS011;4151;51.110;7.020;2024-01-06T03:32:15;48.27;;;17.77;;
8219;SDS011;4151;51.110;7.020;2024-01-06T03:34:40;39.17;;;15.70;;
8219;SDS011;4151;51.110;7.020;2024-01-06T03:37:06;42.07;;;17.63;;
8219;SDS011;4151;51.110;7.020;2024-01-06T03:39:32;48.17;;;18.40;;
8219;SDS011;4151;51.110;7.020;2024-01-06T03:41:57;41.20;;;17.23;;
8219;SDS011;4151;51.110;7.020;2024-01-06T03:44:23;36.97;;;16.93;;
8219;SDS011;4151;51.110;7.020;2024-01-06T03:46:48;42.30;;;17.20;;
8219;SDS011;4151;51.110;7.020;2024-01-06T03:49:14;35.90;;;16.23;;
8219;SDS011;4151;51.110;7.020;2024-01-06T03:51:39;47.70;;;17.83;;
8219;SDS011;4151;51.110;7.020;2024-01-06T03:54:05;40.20;;;16.97;;
8219;SDS011;4151;51.110;7.020;2024-01-06T03:56:30;50.90;;;18.30;;
8219;SDS011;4151;51.110;7.020;2024-01-06T03:58:56;49.57;;;18.87;;
8219;SDS011;4151;51.110;7.020;2024-01-06T04:01:21;53.47;;;18.40;;
8219;SDS011;4151;51.110;7.020;2024-01-06T04:03:47;51.10;;;18.47;;
8219;SDS011;4151;51.110;7.020;2024-01-06T04:06:12;48.10;;;18.10;;
8219;SDS011;4151;51.110;7.020;2024-01-06T04:08:39;61.53;;;20.23;;
8219;SDS011;4151;51.110;7.020;2024-01-06T04:11:06;60.20;;;17.83;;
8219;SDS011;4151;51.110;7.020;2024-01-06T04:13:31;58.37;;;20.30;;
8219;SDS011;4151;51.110;7.020;2024-01-06T04:15:57;54.33;;;18.93;;
8219;SDS011;4151;51.110;7.020;2024-01-06T04:18:22;47.47;;;18.07;;
8219;SDS011;4151;51.110;7.020;2024-01-06T04:20:48;53.07;;;19.10;;
8219;SDS011;4151;51.110;7.020;2024-01-06T04:23:13;54.80;;;19.30;;
8219;SDS011;4151;51.110;7.020;2024-01-06T04:25:39;61.47;;;20.80;;
8219;SDS011;4151;51.110;7.020;2024-01-06T04:28:04;66.07;;;20.63;;
8219;SDS011;4151;51.110;7.020;2024-01-06T04:30:30;56.03;;;18.70;;
8219;SDS011;4151;51.110;7.020;2024-01-06T04:32:56;61.70;;;20.90;;
8219;SDS011;4151;51.110;7.020;2024-01-06T04:35:22;50.90;;;18.43;;
8219;SDS011;4151;51.110;7.020;2024-01-06T04:37:49;64.23;;;20.50;;
8219;SDS011;4151;51.110;7.020;2024-01-06T04:40:14;56.97;;;20.10;;
8219;SDS011;4151;51.110;7.020;2024-01-06T04:42:40;67.87;;;21.03;;
8219;SDS011;4151;51.110;7.020;2024-01-06T04:45:06;55.67;;;20.80;;
8219;SDS011;4151;51.110;7.020;2024-01-06T04:47:32;70.73;;;23.70;;
8219;SDS011;4151;51.110;7.020;2024-01-06T04:49:57;65.20;;;20.80;;
8219;SDS011;4151;51.110;7.020;2024-01-06T04:52:23;68.27;;;21.20;;
8219;SDS011;4151;51.110;7.020;2024-01-06T04:54:48;62.13;;;20.17;;
8219;SDS011;4151;51.110;7.020;2024-01-06T04:57:14;77.27;;;23.77;;
8219;SDS011;4151;51.110;7.020;2024-01-06T04:59:40;80.87;;;25.37;;
8219;SDS011;4151;51.110;7.020;2024-01-06T05:02:06;95.87;;;24.27;;
8219;SDS011;4151;51.110;7.020;2024-01-06T05:04:32;73.27;;;22.50;;
8219;SDS011;4151;51.110;7.020;2024-01-06T05:06:58;62.33;;;19.27;;
8219;SDS011;4151;51.110;7.020;2024-01-06T05:09:24;68.70;;;19.73;;
8219;SDS011;4151;51.110;7.020;2024-01-06T05:11:50;73.83;;;19.80;;
8219;SDS011;4151;51.110;7.020;2024-01-06T05:14:15;69.23;;;17.57;;
8219;SDS011;4151;51.110;7.020;2024-01-06T05:16:41;65.20;;;17.03;;
8219;SDS011;4151;51.110;7.020;2024-01-06T05:19:07;61.13;;;18.30;;
8219;SDS011;4151;51.110;7.020;2024-01-06T05:21:33;60.67;;;16.70;;
8219;SDS011;4151;51.110;7.020;2024-01-06T05:23:59;55.17;;;15.20;;
8219;SDS011;4151;51.110;7.020;2024-01-06T05:26:25;66.00;;;18.47;;
8219;SDS011;4151;51.110;7.020;2024-01-06T05:28:51;66.83;;;16.90;;
8219;SDS011;4151;51.110;7.020;2024-01-06T05:31:17;48.73;;;14.57;;
8219;SDS011;4151;51.110;7.020;2024-01-06T05:33:43;51.20;;;15.27;;
8219;SDS011;4151;51.110;7.020;2024-01-06T05:36:08;49.93;;;14.97;;
8219;SDS011;4151;51.110;7.020;2024-01-06T05:38:34;51.00;;;14.60;;
8219;SDS011;4151;51.110;7.020;2024-01-06T05:41:01;49.07;;;15.60;;
8219;SDS011;4151;51.110;7.020;2024-01-06T05:43:27;49.90;;;14.60;;
8219;SDS011;4151;51.110;7.020;2024-01-06T05:45:52;45.00;;;11.97;;
8219;SDS011;4151;51.110;7.020;2024-01-06T05:48:18;35.70;;;12.87;;
8219;SDS011;4151;51.110;7.020;2024-01-06T05:50:43;41.00;;;11.40;;
8219;SDS011;4151;51.110;7.020;2024-01-06T05:53:09;38.27;;;11.50;;
8219;SDS011;4151;51.110;7.020;2024-01-06T05:55:35;43.40;;;12.73;;
8219;SDS011;4151;51.110;7.020;2024-01-06T05:58:01;44.47;;;12.03;;
8219;SDS011;4151;51.110;7.020;2024-01-06T06:00:27;35.70;;;10.77;;
8219;SDS011;4151;51.110;7.020;2024-01-06T06:02:52;28.80;;;11.00;;
8219;SDS011;4151;51.110;7.020;2024-01-06T06:05:18;27.17;;;9.50;;
8219;SDS011;4151;51.110;7.020;2024-01-06T06:07:45;34.07;;;10.80;;
8219;SDS011;4151;51.110;7.020;2024-01-06T06:10:10;33.03;;;10.40;;
8219;SDS011;4151;51.110;7.020;2024-01-06T06:12:36;37.67;;;10.17;;
8219;SDS011;4151;51.110;7.020;2024-01-06T06:15:02;29.20;;;8.50;;
8219;SDS011;4151;51.110;7.020;2024-01-06T06:17:32;30.60;;;10.90;;
8219;SDS011;4151;51.110;7.020;2024-01-06T06:19:58;35.33;;;10.70;;
8219;SDS011;4151;51.110;7.020;2024-01-06T06:22:25;36.73;;;11.93;;
8219;SDS011;4151;51.110;7.020;2024-01-06T06:25:00;29.10;;;9.73;;
8219;SDS011;4151;51.110;7.020;2024-01-06T06:27:26;35.03;;;10.40;;
8219;SDS011;4151;51.110;7.020;2024-01-06T06:29:52;29.00;;;11.00;;
8219;SDS011;4151;51.110;7.020;2024-01-06T06:32:17;33.87;;;10.37;;
8219;SDS011;4151;51.110;7.020;2024-01-06T06:34:43;33.33;;;11.40;;
8219;SDS011;4151;51.110;7.020;2024-01-06T06:37:09;36.57;;;10.50;;
8219;SDS011;4151;51.110;7.020;2024-01-06T06:39:34;33.17;;;10.93;;
8219;SDS011;4151;51.110;7.020;2024-01-06T06:42:00;48.97;;;12.67;;
8219;SDS011;4151;51.110;7.020;2024-01-06T06:44:27;31.30;;;9.70;;
8219;SDS011;4151;51.110;7.020;2024-01-06T06:46:53;34.17;;;10.63;;
8219;SDS011;4151;51.110;7.020;2024-01-06T06:49:18;35.40;;;10.50;;
8219;SDS011;4151;51.110;7.020;2024-01-06T06:51:44;33.83;;;10.80;;
8219;SDS011;4151;51.110;7.020;2024-01-06T06:54:13;38.40;;;10.73;;
8219;SDS011;4151;51.110;7.020;2024-01-06T06:56:40;41.67;;;11.50;;
8219;SDS011;4151;51.110;7.020;2024-01-06T06:59:09;22.87;;;9.30;;
8219;SDS011;4151;51.110;7.020;2024-01-06T07:01:34;25.77;;;9.60;;
8219;SDS011;4151;51.110;7.020;2024-01-06T07:04:00;25.07;;;10.37;;
8219;SDS011;4151;51.110;7.020;2024-01-06T07:06:27;39.93;;;10.17;;
8219;SDS011;4151;51.110;7.020;2024-01-06T07:08:53;33.50;;;9.50;;
8219;SDS011;4151;51.110;7.020;2024-01-06T07:11:19;34.90;;;10.80;;
8219;SDS011;4151;51.110;7.020;2024-01-06T07:13:44;32.30;;;9.10;;
8219;SDS011;4151;51.110;7.020;2024-01-06T07:16:10;32.93;;;10.40;;
8219;SDS011;4151;51.110;7.020;2024-01-06T07:18:36;30.97;;;9.80;;
8219;SDS011;4151;51.110;7.020;2024-01-06T07:21:04;32.93;;;10.07;;
8219;SDS011;4151;51.110;7.020;2024-01-06T07:23:31;32.30;;;10.37;;
8219;SDS011;4151;51.110;7.020;2024-01-06T07:25:57;38.13;;;9.70;;
8219;SDS011;4151;51.110;7.020;2024-01-06T07:28:23;31.20;;;8.63;;
8219;SDS011;4151;51.110;7.020;2024-01-06T07:30:48;32.43;;;11.10;;
8219;SDS011;4151;51.110;7.020;2024-01-06T07:33:14;35.63;;;11.67;;
8219;SDS011;4151;51.110;7.020;2024-01-06T07:35:39;31.00;;;11.17;;
8219;SDS011;4151;51.110;7.020;2024-01-06T07:38:08;28.67;;;10.07;;
8219;SDS011;4151;51.110;7.020;2024-01-06T07:40:37;27.57;;;10.17;;
8219;SDS011;4151;51.110;7.020;2024-01-06T07:43:02;36.13;;;11.60;;
8219;SDS011;4151;51.110;7.020;2024-01-06T07:45:29;25.40;;;10.10;;
8219;SDS011;4151;51.110;7.020;2024-01-06T07:47:55;34.23;;;10.93;;
8219;SDS011;4151;51.110;7.020;2024-01-06T07:50:20;31.50;;;10.00;;
8219;SDS011;4151;51.110;7.020;2024-01-06T07:52:46;31.00;;;9.70;;
8219;SDS011;4151;51.110;7.020;2024-01-06T07:55:11;32.30;;;10.90;;
8219;SDS011;4151;51.110;7.020;2024-01-06T07:57:37;34.37;;;12.17;;
8219;SDS011;4151;51.110;7.020;2024-01-06T08:00:03;32.23;;;11.20;;
8219;SDS011;4151;51.110;7.020;2024-01-06T08:02:29;28.40;;;11.20;;
8219;SDS011;4151;51.110;7.020;2024-01-06T08:04:54;37.40;;;12.33;;
8219;SDS011;4151;51.110;7.020;2024-01-06T08:07:21;49.47;;;14.30;;
8219;SDS011;4151;51.110;7.020;2024-01-06T08:09:47;36.47;;;12.70;;
8219;SDS011;4151;51.110;7.020;2024-01-06T08:12:12;36.60;;;12.60;;
8219;SDS011;4151;51.110;7.020;2024-01-06T08:14:38;37.77;;;12.83;;
8219;SDS011;4151;51.110;7.020;2024-01-06T08:17:03;32.17;;;12.97;;
8219;SDS011;4151;51.110;7.020;2024-01-06T08:19:29;40.80;;;14.70;;
8219;SDS011;4151;51.110;7.020;2024-01-06T08:21:56;36.20;;;13.17;;
8219;SDS011;4151;51.110;7.020;2024-01-06T08:24:22;37.70;;;12.70;;
8219;SDS011;4151;51.110;7.020;2024-01-06T08:26:47;49.33;;;13.30;;
8219;SDS011;4151;51.110;7.020;2024-01-06T08:29:13;39.03;;;13.87;;
8219;SDS011;4151;51.110;7.020;2024-01-06T08:31:39;45.17;;;13.17;;
8219;SDS011;4151;51.110;7.020;2024-01-06T08:34:05;45.40;;;12.30;;
8219;SDS011;4151;51.110;7.020;2024-01-06T08:36:32;40.07;;;13.20;;
8219;SDS011;4151;51.110;7.020;2024-01-06T08:38:58;48.70;;;13.80;;
8219;SDS011;4151;51.110;7.020;2024-01-06T08:41:24;40.90;;;12.70;;
8219;SDS011;4151;51.110;7.020;2024-01-06T08:43:50;42.93;;;13.87;;
8219;SDS011;4151;51.110;7.020;2024-01-06T08:46:16;48.73;;;14.13;;
8219;SDS011;4151;51.110;7.020;2024-01-06T08:48:42;44.20;;;13.80;;
8219;SDS011;4151;51.110;7.020;2024-01-06T08:51:07;58.47;;;13.60;;
8219;SDS011;4151;51.110;7.020;2024-01-06T08:53:33;42.13;;;12.43;;
8219;SDS011;4151;51.110;7.020;2024-01-06T08:55:58;36.83;;;11.80;;
8219;SDS011;4151;51.110;7.020;2024-01-06T08:58:24;33.50;;;11.50;;
8219;SDS011;4151;51.110;7.020;2024-01-06T09:00:50;39.67;;;11.80;;
8219;SDS011;4151;51.110;7.020;2024-01-06T09:03:18;49.93;;;13.80;;
8219;SDS011;4151;51.110;7.020;2024-01-06T09:05:45;43.73;;;13.33;;
8219;SDS011;4151;51.110;7.020;2024-01-06T09:08:11;37.47;;;11.47;;
8219;SDS011;4151;51.110;7.020;2024-01-06T09:10:37;49.13;;;14.13;;
8219;SDS011;4151;51.110;7.020;2024-01-06T09:13:02;47.47;;;14.83;;
8219;SDS011;4151;51.110;7.020;2024-01-06T09:15:28;54.53;;;16.50;;
8219;SDS011;4151;51.110;7.020;2024-01-06T09:17:53;43.63;;;13.20;;
8219;SDS011;4151;51.110;7.020;2024-01-06T09:20:19;49.00;;;12.80;;
8219;SDS011;4151;51.110;7.020;2024-01-06T09:22:47;40.13;;;15.33;;
8219;SDS011;4151;51.110;7.020;2024-01-06T09:25:13;44.70;;;13.27;;
8219;SDS011;4151;51.110;7.020;2024-01-06T09:27:39;41.60;;;13.03;;
8219;SDS011;4151;51.110;7.020;2024-01-06T09:30:04;45.30;;;13.53;;
8219;SDS011;4151;51.110;7.020;2024-01-06T09:32:30;45.43;;;15.77;;
8219;SDS011;4151;51.110;7.020;2024-01-06T09:34:56;46.07;;;15.03;;
8219;SDS011;4151;51.110;7.020;2024-01-06T09:37:22;47.07;;;14.00;;
8219;SDS011;4151;51.110;7.020;2024-01-06T09:39:47;50.57;;;15.80;;
8219;SDS011;4151;51.110;7.020;2024-01-06T09:42:13;43.80;;;14.07;;
8219;SDS011;4151;51.110;7.020;2024-01-06T09:44:38;36.77;;;12.47;;
8219;SDS011;4151;51.110;7.020;2024-01-06T09:47:04;39.07;;;12.60;;
8219;SDS011;4151;51.110;7.020;2024-01-06T09:49:31;48.60;;;15.30;;
8219;SDS011;4151;51.110;7.020;2024-01-06T09:52:00;38.73;;;13.07;;
8219;SDS011;4151;51.110;7.020;2024-01-06T09:54:28;48.80;;;13.20;;
8219;SDS011;4151;51.110;7.020;2024-01-06T09:56:58;41.43;;;12.27;;
8219;SDS011;4151;51.110;7.020;2024-01-06T09:59:26;36.40;;;12.90;;
8219;SDS011;4151;51.110;7.020;2024-01-06T10:01:55;46.93;;;13.90;;
8219;SDS011;4151;51.110;7.020;2024-01-06T10:04:22;34.90;;;12.70;;
8219;SDS011;4151;51.110;7.020;2024-01-06T10:06:48;34.17;;;12.13;;
8219;SDS011;4151;51.110;7.020;2024-01-06T10:09:14;38.33;;;15.13;;
8219;SDS011;4151;51.110;7.020;2024-01-06T10:11:39;35.23;;;13.80;;
8219;SDS011;4151;51.110;7.020;2024-01-06T10:14:06;40.20;;;13.97;;
8219;SDS011;4151;51.110;7.020;2024-01-06T10:16:32;46.70;;;13.57;;
8219;SDS011;4151;51.110;7.020;2024-01-06T10:18:59;43.70;;;11.60;;
8219;SDS011;4151;51.110;7.020;2024-01-06T10:21:25;38.00;;;13.67;;
8219;SDS011;4151;51.110;7.020;2024-01-06T10:23:51;47.00;;;15.70;;
8219;SDS011;4151;51.110;7.020;2024-01-06T10:26:18;35.30;;;13.80;;
8219;SDS011;4151;51.110;7.020;2024-01-06T10:28:44;47.73;;;15.50;;
8219;SDS011;4151;51.110;7.020;2024-01-06T10:31:09;45.07;;;15.00;;
8219;SDS011;4151;51.110;7.020;2024-01-06T10:33:35;53.43;;;17.13;;
8219;SDS011;4151;51.110;7.020;2024-01-06T10:36:00;51.20;;;15.20;;
8219;SDS011;4151;51.110;7.020;2024-01-06T10:38:28;57.60;;;17.47;;
8219;SDS011;4151;51.110;7.020;2024-01-06T10:40:57;59.30;;;16.43;;
8219;SDS011;4151;51.110;7.020;2024-01-06T10:43:27;57.57;;;16.53;;
8219;SDS011;4151;51.110;7.020;2024-01-06T10:45:59;62.67;;;20.50;;
8219;SDS011;4151;51.110;7.020;2024-01-06T10:48:29;55.70;;;19.23;;
8219;SDS011;4151;51.110;7.020;2024-01-06T10:50:58;60.17;;;17.40;;
8219;SDS011;4151;51.110;7.020;2024-01-06T10:53:24;69.87;;;18.90;;
8219;SDS011;4151;51.110;7.020;2024-01-06T10:55:52;65.93;;;18.57;;
8219;SDS011;4151;51.110;7.020;2024-01-06T10:58:18;64.27;;;19.10;;
8219;SDS011;4151;51.110;7.020;2024-01-06T11:00:44;60.67;;;17.40;;
8219;SDS011;4151;51.110;7.020;2024-01-06T11:03:10;51.77;;;16.00;;
8219;SDS011;4151;51.110;7.020;2024-01-06T11:05:38;47.70;;;17.40;;
8219;SDS011;4151;51.110;7.020;2024-01-06T11:08:05;56.77;;;16.97;;
8219;SDS011;4151;51.110;7.020;2024-01-06T11:10:31;57.93;;;18.37;;
8219;SDS011;4151;51.110;7.020;2024-01-06T11:13:08;61.93;;;16.80;;
8219;SDS011;4151;51.110;7.020;2024-01-06T11:15:45;49.30;;;16.60;;
8219;SDS011;4151;51.110;7.020;2024-01-06T11:21:16;69.70;;;17.13;;
8219;SDS011;4151;51.110;7.020;2024-01-06T11:23:43;48.73;;;16.23;;
8219;SDS011;4151;51.110;7.020;2024-01-06T11:26:09;56.87;;;17.67;;
8219;SDS011;4151;51.110;7.020;2024-01-06T11:28:47;61.10;;;19.47;;
8219;SDS011;4151;51.110;7.020;2024-01-06T11:31:15;55.10;;;18.03;;
8219;SDS011;4151;51.110;7.020;2024-01-06T11:33:41;61.70;;;17.43;;
8219;SDS011;4151;51.110;7.020;2024-01-06T11:36:12;57.47;;;17.70;;
8219;SDS011;4151;51.110;7.020;2024-01-06T11:38:44;60.67;;;17.83;;
8219;SDS011;4151;51.110;7.020;2024-01-06T11:41:44;54.67;;;16.57;;
8219;SDS011;4151;51.110;7.020;2024-01-06T11:44:13;53.27;;;15.77;;
8219;SDS011;4151;51.110;7.020;2024-01-06T11:46:39;63.10;;;17.27;;
8219;SDS011;4151;51.110;7.020;2024-01-06T11:49:06;68.90;;;18.00;;
8219;SDS011;4151;51.110;7.020;2024-01-06T11:51:34;105.60;;;37.10;;
8219;SDS011;4151;51.110;7.020;2024-01-06T11:54:00;191.33;;;61.97;;
8219;SDS011;4151;51.110;7.020;2024-01-06T11:56:26;109.10;;;37.83;;
8219;SDS011;4151;51.110;7.020;2024-01-06T11:58:51;58.53;;;15.83;;
8219;SDS011;4151;51.110;7.020;2024-01-06T12:01:17;59.37;;;17.87;;
8219;SDS011;4151;51.110;7.020;2024-01-06T12:03:42;59.63;;;16.80;;
8219;SDS011;4151;51.110;7.020;2024-01-06T12:06:08;43.10;;;14.57;;
8219;SDS011;4151;51.110;7.020;2024-01-06T12:08:35;57.30;;;18.00;;
8219;SDS011;4151;51.110;7.020;2024-01-06T12:11:03;53.80;;;18.27;;
8219;SDS011;4151;51.110;7.020;2024-01-06T12:13:30;60.73;;;18.23;;
8219;SDS011;4151;51.110;7.020;2024-01-06T12:15:56;59.20;;;18.37;;
8219;SDS011;4151;51.110;7.020;2024-01-06T12:18:22;61.43;;;20.43;;
8219;SDS011;4151;51.110;7.020;2024-01-06T12:20:49;56.97;;;18.30;;
8219;SDS011;4151;51.110;7.020;2024-01-06T12:23:23;61.97;;;18.13;;
8219;SDS011;4151;51.110;7.020;2024-01-06T12:25:50;77.67;;;19.90;;
8219;SDS011;4151;51.110;7.020;2024-01-06T12:28:15;62.70;;;18.60;;
8219;SDS011;4151;51.110;7.020;2024-01-06T12:30:41;54.97;;;17.30;;
8219;SDS011;4151;51.110;7.020;2024-01-06T12:33:06;66.43;;;19.43;;
8219;SDS011;4151;51.110;7.020;2024-01-06T12:35:32;61.47;;;19.03;;
8219;SDS011;4151;51.110;7.020;2024-01-06T12:37:59;57.40;;;18.07;;
8219;SDS011;4151;51.110;7.020;2024-01-06T12:40:26;46.13;;;18.17;;
8219;SDS011;4151;51.110;7.020;2024-01-06T12:42:52;75.07;;;20.40;;
8219;SDS011;4151;51.110;7.020;2024-01-06T12:45:17;64.30;;;19.60;;
8219;SDS011;4151;51.110;7.020;2024-01-06T12:47:43;55.07;;;17.43;;
8219;SDS011;4151;51.110;7.020;2024-01-06T12:50:08;61.80;;;19.20;;
8219;SDS011;4151;51.110;7.020;2024-01-06T12:52:34;52.20;;;18.20;;
8219;SDS011;4151;51.110;7.020;2024-01-06T12:55:00;64.83;;;18.60;;
8219;SDS011;4151;51.110;7.020;2024-01-06T12:57:28;49.97;;;17.30;;
8219;SDS011;4151;51.110;7.020;2024-01-06T12:59:53;58.83;;;14.83;;
8219;SDS011;4151;51.110;7.020;2024-01-06T13:02:19;40.27;;;14.87;;
8219;SDS011;4151;51.110;7.020;2024-01-06T13:04:46;36.70;;;14.37;;
8219;SDS011;4151;51.110;7.020;2024-01-06T13:07:11;36.47;;;12.37;;
8219;SDS011;4151;51.110;7.020;2024-01-06T13:09:38;36.13;;;13.50;;
8219;SDS011;4151;51.110;7.020;2024-01-06T13:12:04;38.63;;;13.80;;
8219;SDS011;4151;51.110;7.020;2024-01-06T13:14:31;33.53;;;12.50;;
8219;SDS011;4151;51.110;7.020;2024-01-06T13:16:57;36.00;;;13.40;;
8219;SDS011;4151;51.110;7.020;2024-01-06T13:19:23;32.83;;;12.50;;
8219;SDS011;4151;51.110;7.020;2024-01-06T13:21:49;45.30;;;14.67;;
8219;SDS011;4151;51.110;7.020;2024-01-06T13:24:14;40.03;;;13.67;;
8219;SDS011;4151;51.110;7.020;2024-01-06T13:26:40;49.00;;;16.67;;
8219;SDS011;4151;51.110;7.020;2024-01-06T13:29:06;44.37;;;15.00;;
8219;SDS011;4151;51.110;7.020;2024-01-06T13:31:32;36.43;;;14.23;;
8219;SDS011;4151;51.110;7.020;2024-01-06T13:33:58;43.63;;;16.70;;
8219;SDS011;4151;51.110;7.020;2024-01-06T13:36:23;46.30;;;15.07;;
8219;SDS011;4151;51.110;7.020;2024-01-06T13:38:49;158.93;;;59.30;;
8219;SDS011;4151;51.110;7.020;2024-01-06T13:41:15;50.03;;;17.37;;
8219;SDS011;4151;51.110;7.020;2024-01-06T13:43:41;51.47;;;18.30;;
8219;SDS011;4151;51.110;7.020;2024-01-06T13:46:06;59.30;;;18.13;;
8219;SDS011;4151;51.110;7.020;2024-01-06T13:48:32;59.37;;;18.23;;
8219;SDS011;4151;51.110;7.020;2024-01-06T13:50:58;50.00;;;18.33;;
8219;SDS011;4151;51.110;7.020;2024-01-06T13:53:24;66.03;;;18.10;;
8219;SDS011;4151;51.110;7.020;2024-01-06T13:55:50;71.53;;;17.50;;
8219;SDS011;4151;51.110;7.020;2024-01-06T13:58:15;58.27;;;17.50;;
8219;SDS011;4151;51.110;7.020;2024-01-06T14:00:42;60.20;;;16.77;;
8219;SDS011;4151;51.110;7.020;2024-01-06T14:03:09;50.03;;;17.20;;
8219;SDS011;4151;51.110;7.020;2024-01-06T14:05:35;60.87;;;19.50;;
8219;SDS011;4151;51.110;7.020;2024-01-06T14:08:00;76.87;;;17.00;;
8219;SDS011;4151;51.110;7.020;2024-01-06T14:10:26;60.00;;;19.10;;
8219;SDS011;4151;51.110;7.020;2024-01-06T14:12:53;58.83;;;17.90;;
8219;SDS011;4151;51.110;7.020;2024-01-06T14:15:18;57.60;;;19.53;;
8219;SDS011;4151;51.110;7.020;2024-01-06T14:17:44;57.93;;;18.57;;
8219;SDS011;4151;51.110;7.020;2024-01-06T14:20:14;59.67;;;20.10;;
8219;SDS011;4151;51.110;7.020;2024-01-06T14:22:42;71.57;;;19.73;;
8219;SDS011;4151;51.110;7.020;2024-01-06T14:25:11;61.30;;;17.17;;
8219;SDS011;4151;51.110;7.020;2024-01-06T14:27:38;57.07;;;17.00;;
8219;SDS011;4151;51.110;7.020;2024-01-06T14:30:04;54.20;;;17.27;;
8219;SDS011;4151;51.110;7.020;2024-01-06T14:32:32;48.17;;;17.27;;
8219;SDS011;4151;51.110;7.020;2024-01-06T14:34:58;56.33;;;17.43;;
8219;SDS011;4151;51.110;7.020;2024-01-06T14:37:23;53.53;;;16.87;;
8219;SDS011;4151;51.110;7.020;2024-01-06T14:39:49;47.33;;;16.03;;
8219;SDS011;4151;51.110;7.020;2024-01-06T14:42:14;45.07;;;15.07;;
8219;SDS011;4151;51.110;7.020;2024-01-06T14:44:41;53.50;;;16.57;;